Time;durP1;ratioP1;P1;durP2;ratioP2;P2;SDS_P1;SDS_P2;PMS_P1;PMS_P2;Temp;Humidity;BMP_temperature;BMP_pressure;BME280_temperature;BME280_humidity;BME280_pressure;Samples;Min_cycle;Max_cycle;Signal;HPM_P1;HPM_P2
2023/08/01 00:00:34;;;;;;;2.00;1.25;;;15.70;99.90;;;;;;5048344;28;20468;-88
2023/08/01 00:03:00;;;;;;;2.42;1.50;;;15.70;99.90;;;;;;5067393;28;20398;-89
2023/08/01 00:05:27;;;;;;;2.97;2.05;;;15.70;99.90;;;;;;5066193;28;20052;-88
2023/08/01 00:07:54;;;;;;;5.15;1.95;;;15.70;99.90;;;;;;5047591;28;20071;-88
2023/08/01 00:10:21;;;;;;;3.45;1.85;;;15.70;99.90;;;;;;5046429;28;20052;-89
2023/08/01 00:12:48;;;;;;;2.30;1.40;;;15.70;99.90;;;;;;5048241;28;20585;-86
2023/08/01 00:15:15;;;;;;;3.92;1.67;;;15.70;99.90;;;;;;5048171;28;20044;-88
2023/08/01 00:17:42;;;;;;;4.22;1.90;;;15.70;99.90;;;;;;5046720;28;20185;-88
2023/08/01 00:20:09;;;;;;;3.35;1.90;;;15.70;99.90;;;;;;5047948;28;20057;-88
2023/08/01 00:22:36;;;;;;;2.67;1.50;;;15.70;99.90;;;;;;5047080;28;20053;-87
2023/08/01 00:25:03;;;;;;;2.50;1.52;;;15.70;99.90;;;;;;5044540;28;20060;-87
2023/08/01 00:27:32;;;;;;;2.20;1.27;;;15.70;99.90;;;;;;5062264;28;20186;-88
2023/08/01 00:30:07;;;;;;;2.78;1.90;;;15.70;99.90;;;;;;5064400;28;20094;-87
2023/08/01 00:32:34;;;;;;;2.72;1.63;;;15.60;99.90;;;;;;5031037;28;20044;-86
2023/08/01 00:35:01;;;;;;;3.30;1.48;;;15.60;99.90;;;;;;5066187;28;20049;-88
2023/08/01 00:37:28;;;;;;;3.30;1.67;;;15.60;99.90;;;;;;5049191;28;20696;-89
2023/08/01 00:39:55;;;;;;;2.67;1.50;;;15.50;99.90;;;;;;5048063;28;20049;-87
2023/08/01 00:42:22;;;;;;;2.63;1.50;;;15.50;99.90;;;;;;5047432;28;20060;-88
2023/08/01 00:44:49;;;;;;;2.53;1.77;;;15.50;99.90;;;;;;5046499;28;20056;-87
2023/08/01 00:47:15;;;;;;;2.22;1.42;;;15.50;99.90;;;;;;5062811;28;20055;-87
2023/08/01 00:49:42;;;;;;;3.28;1.80;;;15.50;99.90;;;;;;5068359;28;20052;-88
2023/08/01 00:52:09;;;;;;;2.47;1.23;;;15.40;99.90;;;;;;5032999;28;20048;-90
2023/08/01 00:54:36;;;;;;;2.78;1.38;;;15.40;99.90;;;;;;5066539;28;20527;-89
2023/08/01 00:57:04;;;;;;;2.58;1.50;;;15.40;99.90;;;;;;5046386;28;20472;-89
2023/08/01 00:59:30;;;;;;;3.28;1.70;;;15.40;99.90;;;;;;5030359;28;20072;-89
2023/08/01 01:01:58;;;;;;;2.60;1.35;;;15.40;99.90;;;;;;5045270;28;20045;-90
2023/08/01 01:04:25;;;;;;;3.20;1.50;;;15.40;99.90;;;;;;5028163;28;20140;-90
2023/08/01 01:07:02;;;;;;;2.80;1.20;;;15.40;99.90;;;;;;5056385;28;20166;-89
2023/08/01 01:09:31;;;;;;;3.10;1.60;;;15.30;99.90;;;;;;5066144;28;20063;-89
2023/08/01 01:11:59;;;;;;;3.13;1.52;;;15.30;99.90;;;;;;5066251;28;20044;-89
2023/08/01 01:14:27;;;;;;;3.30;1.77;;;15.30;99.90;;;;;;5067199;28;20048;-89
2023/08/01 01:16:53;;;;;;;2.80;1.65;;;15.30;99.90;;;;;;5054066;28;20746;-90
2023/08/01 01:19:20;;;;;;;1.67;1.30;;;15.30;99.90;;;;;;5049889;28;20103;-88
2023/08/01 01:21:47;;;;;;;3.00;1.77;;;15.20;99.90;;;;;;5048644;28;20065;-87
2023/08/01 01:24:14;;;;;;;2.63;1.60;;;15.20;99.90;;;;;;5032497;28;20048;-89
2023/08/01 01:26:41;;;;;;;2.60;1.42;;;15.20;99.90;;;;;;5049359;28;20579;-88
2023/08/01 01:29:08;;;;;;;3.25;1.55;;;15.30;1.00;;;;;;5033249;28;20140;-89
2023/08/01 01:31:35;;;;;;;2.53;1.65;;;15.30;1.00;;;;;;5036732;28;20132;-89
2023/08/01 01:34:02;;;;;;;2.53;1.40;;;15.30;99.90;;;;;;5063482;28;20064;-89
2023/08/01 01:36:29;;;;;;;1.98;1.25;;;15.40;99.90;;;;;;5070507;28;20048;-89
2023/08/01 01:38:55;;;;;;;2.08;1.27;;;15.40;99.90;;;;;;5069884;28;20127;-89
2023/08/01 01:41:22;;;;;;;2.40;1.48;;;15.40;99.90;;;;;;5072605;28;20118;-90
2023/08/01 01:43:49;;;;;;;3.45;1.58;;;15.40;99.90;;;;;;5035498;28;20148;-89
2023/08/01 01:46:16;;;;;;;2.85;1.65;;;15.40;99.90;;;;;;5053170;28;20061;-89
2023/08/01 01:48:43;;;;;;;3.58;1.70;;;15.40;99.90;;;;;;5034237;28;20236;-89
2023/08/01 01:51:10;;;;;;;2.38;1.38;;;15.40;99.90;;;;;;5034263;28;20474;-89
2023/08/01 01:53:36;;;;;;;2.25;1.40;;;15.40;99.90;;;;;;5056379;28;20052;-89
2023/08/01 01:56:03;;;;;;;2.65;1.42;;;15.40;99.90;;;;;;5041930;28;20106;-88
2023/08/01 01:58:30;;;;;;;2.33;1.60;;;15.40;99.90;;;;;;5058130;28;20111;-88
2023/08/01 02:00:57;;;;;;;2.35;1.48;;;15.40;99.90;;;;;;5059101;28;20091;-88
2023/08/01 02:03:24;;;;;;;1.73;1.10;;;15.50;99.90;;;;;;5071153;28;20044;-88
2023/08/01 02:05:50;;;;;;;3.45;1.83;;;15.50;99.90;;;;;;5074413;28;20079;-88
2023/08/01 02:08:17;;;;;;;2.65;1.55;;;15.50;99.90;;;;;;5052927;28;20400;-89
2023/08/01 02:10:44;;;;;;;4.75;1.63;;;15.50;99.90;;;;;;5050642;28;20515;-88
2023/08/01 02:13:11;;;;;;;2.30;1.35;;;15.50;99.90;;;;;;5058192;28;20080;-88
2023/08/01 02:15:37;;;;;;;3.05;1.60;;;15.60;99.90;;;;;;5070080;28;20066;-88
2023/08/01 02:18:04;;;;;;;2.92;1.40;;;15.60;99.90;;;;;;5070186;28;20129;-89
2023/08/01 02:20:31;;;;;;;3.20;1.67;;;15.70;99.90;;;;;;5069793;28;20048;-88
2023/08/01 02:22:58;;;;;;;1.70;0.95;;;15.70;99.90;;;;;;5070049;28;20128;-89
2023/08/01 02:25:24;;;;;;;2.38;1.42;;;15.70;99.90;;;;;;5068797;28;20515;-89
2023/08/01 02:27:51;;;;;;;1.73;1.20;;;15.70;99.90;;;;;;5069390;28;20110;-88
2023/08/01 02:30:18;;;;;;;1.63;1.30;;;15.70;99.90;;;;;;5069414;28;20057;-89
2023/08/01 02:32:45;;;;;;;4.18;1.63;;;15.80;99.90;;;;;;5068619;28;20111;-88
2023/08/01 02:35:12;;;;;;;3.75;2.00;;;15.80;99.90;;;;;;5068856;28;20060;-89
2023/08/01 02:37:39;;;;;;;3.63;1.73;;;15.70;99.90;;;;;;5067908;28;20047;-88
2023/08/01 02:40:08;;;;;;;2.15;1.40;;;15.70;99.90;;;;;;5051408;28;20659;-87
2023/08/01 02:42:35;;;;;;;2.20;1.35;;;15.80;99.90;;;;;;5023779;28;20114;-89
2023/08/01 02:45:02;;;;;;;2.55;1.40;;;15.80;99.90;;;;;;5067669;28;20067;-90
2023/08/01 02:47:28;;;;;;;2.60;1.40;;;15.80;99.90;;;;;;5067476;28;20064;-89
2023/08/01 02:49:55;;;;;;;2.78;1.60;;;15.80;99.90;;;;;;5070445;28;20044;-89
2023/08/01 02:52:22;;;;;;;1.85;1.35;;;15.80;99.90;;;;;;5066587;28;20357;-88
2023/08/01 02:54:49;;;;;;;2.35;1.55;;;15.80;99.90;;;;;;5033132;28;20049;-89
2023/08/01 02:57:15;;;;;;;1.90;1.50;;;15.80;99.90;;;;;;5050793;28;20040;-88
2023/08/01 02:59:42;;;;;;;2.00;1.38;;;15.90;86.70;;;;;;5050370;28;20565;-90
2023/08/01 03:02:09;;;;;;;2.97;1.60;;;15.90;23.30;;;;;;5048921;28;20495;-90
2023/08/01 03:04:36;;;;;;;2.70;1.38;;;15.90;8.30;;;;;;5068462;28;20170;-89
2023/08/01 03:07:12;;;;;;;3.65;1.80;;;15.80;1.00;;;;;;5068726;28;20049;-89
2023/08/01 03:09:39;;;;;;;2.72;1.67;;;15.80;1.00;;;;;;5066806;28;20048;-90
2023/08/01 03:12:06;;;;;;;2.58;1.83;;;15.90;1.00;;;;;;5070820;28;20135;-89
2023/08/01 03:14:32;;;;;;;4.10;1.70;;;15.90;1.00;;;;;;5070917;28;20052;-88
2023/08/01 03:17:00;;;;;;;3.03;1.52;;;15.80;1.00;;;;;;5063524;28;20052;-88
2023/08/01 03:19:28;;;;;;;3.20;1.65;;;15.80;1.00;;;;;;5063290;28;20052;-89
2023/08/01 03:21:55;;;;;;;1.38;1.00;;;15.80;1.00;;;;;;5062264;28;20055;-90
2023/08/01 03:24:22;;;;;;;4.43;1.40;;;15.80;1.00;;;;;;5065020;28;20057;-89
2023/08/01 03:26:49;;;;;;;2.22;1.33;;;15.80;1.00;;;;;;5048541;28;20424;-90
2023/08/01 03:29:16;;;;;;;2.75;1.70;;;15.80;1.00;;;;;;5053020;28;20152;-87
2023/08/01 03:31:44;;;;;;;2.05;1.38;;;15.80;1.00;;;;;;5056411;28;20123;-89
2023/08/01 03:34:12;;;;;;;3.05;1.63;;;15.80;1.00;;;;;;5039627;28;20379;-86
2023/08/01 03:36:39;;;;;;;3.17;1.75;;;15.80;21.10;;;;;;5058525;28;20112;-88
2023/08/01 03:39:06;;;;;;;3.05;1.40;;;15.80;1.00;;;;;;5060818;28;20131;-88
2023/08/01 03:41:33;;;;;;;3.45;1.77;;;15.80;14.10;;;;;;5056936;28;20045;-88
2023/08/01 03:44:00;;;;;;;2.38;1.63;;;15.80;37.80;;;;;;5049551;28;20052;-89
2023/08/01 03:46:27;;;;;;;2.35;1.33;;;15.80;11.30;;;;;;5070145;28;20044;-88
2023/08/01 03:48:54;;;;;;;4.38;2.05;;;15.80;15.40;;;;;;5065470;28;20523;-90
2023/08/01 03:51:20;;;;;;;4.43;2.05;;;15.70;1.00;;;;;;5032150;28;20103;-87
2023/08/01 03:53:47;;;;;;;4.95;1.67;;;15.70;1.00;;;;;;5058797;28;20611;-87
2023/08/01 03:56:25;;;;;;;2.92;1.63;;;15.70;1.00;;;;;;5053330;28;20048;-88
2023/08/01 03:58:52;;;;;;;2.42;1.70;;;15.70;1.00;;;;;;5068871;28;20106;-88
2023/08/01 04:01:19;;;;;;;3.15;1.90;;;15.60;1.00;;;;;;5051380;28;20052;-88
2023/08/01 04:03:46;;;;;;;3.92;1.88;;;15.60;1.00;;;;;;5069160;28;20075;-87
2023/08/01 04:06:15;;;;;;;2.20;1.30;;;15.60;1.00;;;;;;5068303;28;20102;-88
2023/08/01 04:08:41;;;;;;;3.40;1.92;;;15.50;1.00;;;;;;5067910;28;20064;-88
2023/08/01 04:11:08;;;;;;;2.42;1.63;;;15.50;1.00;;;;;;5068889;28;20425;-88
2023/08/01 04:13:35;;;;;;;2.75;1.50;;;15.50;1.80;;;;;;5059014;28;20385;-85
2023/08/01 04:16:02;;;;;;;2.92;1.70;;;15.50;22.10;;;;;;5046763;28;20045;-88
2023/08/01 04:18:29;;;;;;;2.05;1.45;;;15.50;42.60;;;;;;5047751;28;20049;-89
2023/08/01 04:20:56;;;;;;;2.47;1.35;;;15.40;54.20;;;;;;5048884;28;20052;-89
2023/08/01 04:23:22;;;;;;;1.38;1.00;;;15.40;63.80;;;;;;5048477;28;20056;-89
2023/08/01 04:25:49;;;;;;;2.95;1.27;;;15.30;81.60;;;;;;5048471;28;20103;-88
2023/08/01 04:28:16;;;;;;;3.75;1.38;;;15.30;87.70;;;;;;5049166;28;20053;-87
2023/08/01 04:30:49;;;;;;;1.73;0.88;;;15.30;95.30;;;;;;5031412;28;20056;-88
2023/08/01 04:33:15;;;;;;;1.50;0.90;;;15.30;99.90;;;;;;5047924;28;20140;-89
2023/08/01 04:35:42;;;;;;;2.47;1.30;;;15.20;99.90;;;;;;5047821;28;20106;-84
2023/08/01 04:38:10;;;;;;;1.85;1.20;;;15.20;99.90;;;;;;5047759;28;20509;-89
2023/08/01 04:40:38;;;;;;;2.50;0.95;;;15.20;99.90;;;;;;5032059;28;20135;-87
2023/08/01 04:43:04;;;;;;;1.98;1.10;;;15.10;99.90;;;;;;5053650;28;20071;-88
2023/08/01 04:45:31;;;;;;;1.83;1.05;;;15.10;99.90;;;;;;5066886;28;20044;-88
2023/08/01 04:47:58;;;;;;;1.50;0.90;;;15.10;99.90;;;;;;5045649;28;20106;-88
2023/08/01 04:50:25;;;;;;;2.08;1.05;;;15.10;99.90;;;;;;5046173;28;20175;-88
2023/08/01 04:52:51;;;;;;;3.40;1.10;;;15.00;99.90;;;;;;5049866;28;20103;-87
2023/08/01 04:55:18;;;;;;;2.10;1.10;;;15.10;99.90;;;;;;5054180;28;20125;-88
2023/08/01 04:57:45;;;;;;;2.47;1.33;;;15.10;99.90;;;;;;5060015;28;20052;-85
2023/08/01 05:00:12;;;;;;;2.80;0.90;;;15.00;99.90;;;;;;5047018;28;20109;-84
2023/08/01 05:02:39;;;;;;;2.35;1.25;;;15.00;99.90;;;;;;5053912;28;20452;-85
2023/08/01 05:05:06;;;;;;;1.92;1.10;;;15.00;99.90;;;;;;5050507;28;20052;-88
2023/08/01 05:07:33;;;;;;;2.05;1.02;;;15.00;99.90;;;;;;5053811;28;20673;-89
2023/08/01 05:10:00;;;;;;;1.90;1.10;;;15.00;99.90;;;;;;5054840;28;20508;-89
2023/08/01 05:12:27;;;;;;;2.80;1.00;;;15.00;99.90;;;;;;5070626;28;20110;-88
2023/08/01 05:14:53;;;;;;;1.83;0.90;;;15.00;99.90;;;;;;5074131;28;20093;-88
2023/08/01 05:17:21;;;;;;;2.55;1.10;;;15.00;99.90;;;;;;5075529;28;20489;-88
2023/08/01 05:19:48;;;;;;;2.63;1.30;;;15.00;99.90;;;;;;5070473;28;20139;-88
2023/08/01 05:22:15;;;;;;;1.60;1.20;;;15.00;99.90;;;;;;5053071;28;20052;-87
2023/08/01 05:24:42;;;;;;;1.55;1.00;;;15.00;99.90;;;;;;5052139;28;20052;-88
2023/08/01 05:27:09;;;;;;;1.45;0.98;;;15.00;99.90;;;;;;5073149;28;20064;-89
2023/08/01 05:29:36;;;;;;;1.65;0.80;;;15.00;99.90;;;;;;5072933;28;20447;-90
2023/08/01 05:32:03;;;;;;;3.03;1.40;;;15.00;99.90;;;;;;5069023;28;20048;-89
2023/08/01 05:34:30;;;;;;;1.83;1.25;;;15.00;99.90;;;;;;5072134;28;20097;-83
2023/08/01 05:36:57;;;;;;;2.05;1.17;;;15.10;99.90;;;;;;5048724;28;20056;-89
2023/08/01 05:39:23;;;;;;;2.15;1.50;;;15.10;99.90;;;;;;5071269;28;20047;-90
2023/08/01 05:41:50;;;;;;;2.50;1.08;;;15.10;99.90;;;;;;5057157;28;20103;-90
2023/08/01 05:44:17;;;;;;;3.17;1.25;;;15.10;99.90;;;;;;5072257;28;20052;-91
2023/08/01 05:46:44;;;;;;;1.55;1.10;;;15.10;99.90;;;;;;5077745;28;20045;-91
2023/08/01 05:49:11;;;;;;;3.08;1.52;;;15.10;99.80;;;;;;5082856;28;20131;-86
2023/08/01 05:51:37;;;;;;;3.13;0.88;;;15.10;97.90;;;;;;5082320;28;20040;-89
2023/08/01 05:54:05;;;;;;;1.90;1.23;;;15.10;35.90;;;;;;5060082;28;20060;-87
2023/08/01 05:56:31;;;;;;;2.17;1.20;;;15.10;19.10;;;;;;5058400;28;20044;-85
2023/08/01 05:58:58;;;;;;;1.50;0.80;;;15.20;13.40;;;;;;5060551;28;20052;-88
2023/08/01 06:01:25;;;;;;;3.17;1.50;;;15.20;1.00;;;;;;5047756;28;20076;-87
2023/08/01 06:03:52;;;;;;;1.15;0.75;;;15.20;1.00;;;;;;5044144;28;20713;-88
2023/08/01 06:06:18;;;;;;;1.20;0.90;;;15.30;1.00;;;;;;5071930;28;20052;-87
2023/08/01 06:08:45;;;;;;;1.63;0.80;;;15.30;1.00;;;;;;5057614;28;20080;-86
2023/08/01 06:11:12;;;;;;;1.63;0.93;;;15.40;1.00;;;;;;5082064;28;20577;-86
2023/08/01 06:13:39;;;;;;;2.03;1.38;;;15.40;1.00;;;;;;5050048;28;20064;-87
2023/08/01 06:16:06;;;;;;;2.67;1.02;;;15.40;99.90;;;;;;5045376;28;20473;-85
2023/08/01 06:18:32;;;;;;;1.98;0.93;;;15.40;99.90;;;;;;5058413;28;20059;-86
2023/08/01 06:20:59;;;;;;;1.75;1.00;;;15.50;99.90;;;;;;5083850;28;20932;-87
2023/08/01 06:23:26;;;;;;;1.52;1.08;;;15.60;99.90;;;;;;5073454;28;20057;-86
2023/08/01 06:25:52;;;;;;;2.35;1.10;;;15.80;99.90;;;;;;5072603;28;20403;-87
2023/08/01 06:28:19;;;;;;;3.65;1.40;;;15.90;99.90;;;;;;5068964;28;20533;-87
2023/08/01 06:30:46;;;;;;;2.35;1.40;;;16.00;99.90;;;;;;5065344;28;20392;-87
2023/08/01 06:33:13;;;;;;;3.22;1.50;;;16.10;99.90;;;;;;5065443;28;20048;-88
2023/08/01 06:35:40;;;;;;;2.42;1.27;;;16.10;65.70;;;;;;5068882;28;20160;-86
2023/08/01 06:38:06;;;;;;;1.98;1.23;;;16.10;99.90;;;;;;5070436;28;20090;-88
2023/08/01 06:40:33;;;;;;;2.90;1.33;;;16.10;98.90;;;;;;5073662;28;20060;-87
2023/08/01 06:43:00;;;;;;;2.22;1.20;;;16.10;99.90;;;;;;5064532;28;20864;-85
2023/08/01 06:45:27;;;;;;;1.95;1.02;;;16.20;52.00;;;;;;5028533;28;20037;-81
2023/08/01 06:47:53;;;;;;;1.23;0.90;;;16.30;99.90;;;;;;5039399;28;20095;-84
2023/08/01 06:50:20;;;;;;;3.00;1.60;;;16.40;99.90;;;;;;5051537;28;20453;-84
2023/08/01 06:52:47;;;;;;;2.72;1.30;;;16.40;1.00;;;;;;5046726;28;20059;-87
2023/08/01 06:55:14;;;;;;;3.03;1.73;;;16.40;1.00;;;;;;5076475;28;20056;-86
2023/08/01 06:57:41;;;;;;;2.50;1.27;;;16.40;99.90;;;;;;5081719;28;20444;-89
2023/08/01 07:00:08;;;;;;;2.20;1.10;;;16.40;99.90;;;;;;5066534;28;20127;-90
2023/08/01 07:02:35;;;;;;;1.85;1.40;;;16.40;99.90;;;;;;5051981;28;20056;-91
2023/08/01 07:05:02;;;;;;;3.35;1.55;;;16.50;1.00;;;;;;5076223;28;20086;-86
2023/08/01 07:07:29;;;;;;;2.80;1.20;;;16.50;99.90;;;;;;5079097;28;20072;-87
2023/08/01 07:09:56;;;;;;;2.70;1.15;;;16.60;99.90;;;;;;5056965;28;20275;-87
2023/08/01 07:12:22;;;;;;;2.38;1.33;;;16.70;1.00;;;;;;5029614;28;20103;-88
2023/08/01 07:14:49;;;;;;;2.60;1.10;;;16.90;99.90;;;;;;5023015;28;20049;-87
2023/08/01 07:17:16;;;;;;;2.67;1.10;;;17.10;99.90;;;;;;5039706;28;20060;-86
2023/08/01 07:19:43;;;;;;;2.67;1.48;;;17.30;1.00;;;;;;5022028;28;20053;-87
2023/08/01 07:22:10;;;;;;;3.30;1.63;;;17.50;99.90;;;;;;5043637;28;20533;-89
2023/08/01 07:24:37;;;;;;;2.55;1.33;;;17.50;99.90;;;;;;5047400;28;20129;-89
2023/08/01 07:27:04;;;;;;;2.63;1.17;;;17.60;1.00;;;;;;5063641;28;20106;-87
2023/08/01 07:29:31;;;;;;;2.65;1.30;;;17.60;99.90;;;;;;5070120;28;20097;-88
2023/08/01 07:31:58;;;;;;;1.92;1.23;;;17.60;1.00;;;;;;5034660;28;20051;-87
2023/08/01 07:34:24;;;;;;;2.63;1.30;;;17.70;99.90;;;;;;5052489;28;20053;-89
2023/08/01 07:36:52;;;;;;;2.35;1.10;;;17.80;99.90;;;;;;5062176;28;20074;-88
2023/08/01 07:39:18;;;;;;;3.13;1.25;;;17.80;99.90;;;;;;5066545;28;20086;-88
2023/08/01 07:41:45;;;;;;;1.77;1.08;;;17.80;99.90;;;;;;5057127;28;20136;-87
2023/08/01 07:44:12;;;;;;;1.77;0.90;;;17.90;99.90;;;;;;5060743;28;20068;-82
2023/08/01 07:46:39;;;;;;;1.60;1.05;;;18.10;99.90;;;;;;5043086;28;20148;-87
2023/08/01 07:49:06;;;;;;;1.55;1.02;;;18.10;99.90;;;;;;5049587;28;20083;-86
2023/08/01 07:51:34;;;;;;;2.92;1.35;;;18.20;99.90;;;;;;5041528;28;20072;-85
2023/08/01 07:54:00;;;;;;;1.80;0.73;;;18.20;99.90;;;;;;5050413;28;20056;-88
2023/08/01 07:56:27;;;;;;;2.22;1.10;;;18.30;99.90;;;;;;5025638;28;20044;-88
2023/08/01 07:58:54;;;;;;;1.60;0.90;;;18.40;99.90;;;;;;5029828;28;20048;-89
2023/08/01 08:01:21;;;;;;;1.80;0.90;;;18.30;99.90;;;;;;5041321;28;20076;-87
2023/08/01 08:03:48;;;;;;;2.60;0.80;;;18.30;99.90;;;;;;5038801;28;20076;-88
2023/08/01 08:06:15;;;;;;;2.10;0.98;;;18.20;99.90;;;;;;5027967;28;20121;-87
2023/08/01 08:08:42;;;;;;;2.22;0.90;;;18.10;99.90;;;;;;5044521;28;20061;-89
2023/08/01 08:11:09;;;;;;;2.30;1.00;;;18.00;99.90;;;;;;5060255;28;20111;-88
2023/08/01 08:13:36;;;;;;;1.77;1.00;;;18.00;99.90;;;;;;5033769;28;20068;-89
2023/08/01 08:16:04;;;;;;;1.60;0.82;;;18.00;99.90;;;;;;5067041;28;20057;-89
2023/08/01 08:18:31;;;;;;;2.65;0.90;;;18.00;99.90;;;;;;5066368;28;20087;-90
2023/08/01 08:20:58;;;;;;;1.88;0.88;;;18.10;99.90;;;;;;5049503;28;20670;-92
2023/08/01 08:23:25;;;;;;;1.90;1.20;;;18.10;99.90;;;;;;5062283;28;20045;-89
2023/08/01 08:25:52;;;;;;;2.13;0.88;;;18.10;99.90;;;;;;5061255;28;20514;-85
2023/08/01 08:28:29;;;;;;;1.65;0.85;;;18.20;99.90;;;;;;5046013;28;20056;-87
2023/08/01 08:30:56;;;;;;;1.92;0.98;;;18.10;99.90;;;;;;5051865;28;20602;-86
2023/08/01 08:33:23;;;;;;;1.70;0.80;;;18.00;99.90;;;;;;5038870;28;20041;-87
2023/08/01 08:35:50;;;;;;;1.33;0.80;;;18.10;99.90;;;;;;5031784;28;20555;-86
2023/08/01 08:38:17;;;;;;;2.70;0.90;;;18.10;99.90;;;;;;5048091;28;20045;-87
2023/08/01 08:41:09;;;;;;;1.33;0.70;;;18.20;99.90;;;;;;5046067;28;20437;-85
2023/08/01 08:43:36;;;;;;;1.15;0.60;;;18.40;99.90;;;;;;5060791;28;20074;-85
2023/08/01 08:46:03;;;;;;;0.82;0.60;;;18.60;99.90;;;;;;5070359;28;20465;-85
2023/08/01 08:48:30;;;;;;;1.15;0.63;;;18.80;99.90;;;;;;5067730;28;20044;-86
2023/08/01 08:50:57;;;;;;;2.30;0.93;;;19.00;99.90;;;;;;5067277;28;20551;-87
2023/08/01 08:53:24;;;;;;;1.05;0.68;;;19.20;99.90;;;;;;5040050;28;20064;-86
2023/08/01 08:55:51;;;;;;;1.80;0.60;;;19.30;99.90;;;;;;5048042;28;20049;-88
2023/08/01 08:58:17;;;;;;;0.98;0.50;;;19.20;99.90;;;;;;5060714;28;20048;-87
2023/08/01 09:00:44;;;;;;;1.70;0.82;;;19.20;99.90;;;;;;5056761;28;20402;-87
2023/08/01 09:03:11;;;;;;;1.00;0.60;;;19.10;99.40;;;;;;5066282;28;20051;-86
2023/08/01 09:05:45;;;;;;;0.75;0.50;;;19.20;99.00;;;;;;5068422;28;20048;-86
2023/08/01 09:08:19;;;;;;;0.77;0.50;;;19.30;94.70;;;;;;5048591;28;20558;-87
2023/08/01 09:10:47;;;;;;;1.45;0.80;;;19.50;96.70;;;;;;5050533;28;20052;-87
2023/08/01 09:13:14;;;;;;;1.50;0.70;;;19.60;93.10;;;;;;5057901;28;20183;-86
2023/08/01 09:15:43;;;;;;;1.73;0.63;;;19.60;90.80;;;;;;5051537;28;20265;-86
2023/08/01 09:18:10;;;;;;;2.13;1.00;;;19.60;87.00;;;;;;5047732;28;20063;-86
2023/08/01 09:20:47;;;;;;;1.08;0.60;;;19.60;82.60;;;;;;5063966;28;20102;-85
2023/08/01 09:23:14;;;;;;;1.10;0.63;;;19.60;80.00;;;;;;5065986;28;20064;-87
2023/08/01 09:25:41;;;;;;;0.98;0.63;;;19.60;79.10;;;;;;5048087;28;20064;-86
2023/08/01 09:28:22;;;;;;;1.85;0.70;;;19.60;81.70;;;;;;5064335;28;20511;-86
2023/08/01 09:30:50;;;;;;;1.38;0.68;;;19.80;77.40;;;;;;5065882;28;20106;-86
2023/08/01 09:33:17;;;;;;;1.73;0.60;;;19.90;78.70;;;;;;5048456;28;20072;-87
2023/08/01 09:35:45;;;;;;;1.92;0.85;;;20.00;77.30;;;;;;5027814;28;20053;-88
2023/08/01 09:38:14;;;;;;;1.55;0.90;;;19.90;74.10;;;;;;5042800;28;20362;-87
2023/08/01 09:40:41;;;;;;;0.90;0.60;;;19.90;85.40;;;;;;5056739;28;20068;-86
2023/08/01 09:43:07;;;;;;;2.00;0.70;;;19.90;72.80;;;;;;5062379;28;20102;-88
2023/08/01 09:45:34;;;;;;;1.42;0.73;;;20.00;72.60;;;;;;5068032;28;20129;-87
2023/08/01 09:48:01;;;;;;;1.40;0.70;;;20.00;84.20;;;;;;5066402;28;20056;-89
2023/08/01 09:50:28;;;;;;;1.27;0.70;;;20.10;66.10;;;;;;5038359;28;20136;-87
2023/08/01 09:52:55;;;;;;;1.85;0.93;;;20.00;65.80;;;;;;5051723;28;20521;-87
2023/08/01 09:55:32;;;;;;;1.92;0.90;;;19.80;63.50;;;;;;5029193;28;20055;-88
2023/08/01 09:57:59;;;;;;;1.17;0.73;;;19.80;60.70;;;;;;5047352;28;20115;-87
2023/08/01 10:00:27;;;;;;;2.40;0.80;;;19.90;62.30;;;;;;5047971;28;20057;-86
2023/08/01 10:02:55;;;;;;;1.85;0.73;;;20.10;61.60;;;;;;5039614;28;20045;-87
2023/08/01 10:05:22;;;;;;;1.63;0.80;;;20.40;57.60;;;;;;5031579;28;20393;-88
2023/08/01 10:07:49;;;;;;;1.13;0.77;;;20.50;69.10;;;;;;5030629;28;20118;-87
2023/08/01 10:10:16;;;;;;;1.05;0.55;;;20.60;58.10;;;;;;5047093;28;20053;-88
2023/08/01 10:12:48;;;;;;;1.70;0.80;;;20.60;59.60;;;;;;5037542;28;20412;-88
2023/08/01 10:15:15;;;;;;;0.83;0.60;;;20.70;61.10;;;;;;5067066;28;20048;-87
2023/08/01 10:17:42;;;;;;;1.52;0.98;;;20.70;57.80;;;;;;5065765;28;20079;-87
2023/08/01 10:20:09;;;;;;;1.77;0.65;;;20.70;53.90;;;;;;5064167;28;20044;-87
2023/08/01 10:22:36;;;;;;;1.25;0.50;;;21.00;69.90;;;;;;5066335;28;20086;-88
2023/08/01 10:25:03;;;;;;;1.00;0.68;;;21.10;54.70;;;;;;5046463;28;20060;-88
2023/08/01 10:27:30;;;;;;;1.58;0.65;;;21.20;55.90;;;;;;5027979;28;20130;-87
2023/08/01 10:29:58;;;;;;;2.20;1.05;;;21.30;66.40;;;;;;5051691;28;20133;-87
2023/08/01 10:32:33;;;;;;;0.95;0.60;;;21.20;51.10;;;;;;5061048;28;20055;-87
2023/08/01 10:34:59;;;;;;;1.08;0.65;;;21.10;51.60;;;;;;5044546;28;20132;-88
2023/08/01 10:37:27;;;;;;;0.75;0.57;;;21.10;49.20;;;;;;5044716;28;20115;-86
2023/08/01 10:39:59;;;;;;;1.40;0.63;;;21.00;47.00;;;;;;5050605;28;20053;-87
2023/08/01 10:42:39;;;;;;;0.93;0.60;;;20.90;45.80;;;;;;5048265;28;20542;-86
2023/08/01 10:45:07;;;;;;;0.70;0.50;;;21.00;47.20;;;;;;5045553;28;20557;-87
2023/08/01 10:47:34;;;;;;;1.67;0.60;;;20.90;44.30;;;;;;5029385;28;20048;-88
2023/08/01 10:50:01;;;;;;;0.52;0.45;;;21.00;44.50;;;;;;5046551;28;20063;-86
2023/08/01 10:52:28;;;;;;;1.83;0.77;;;21.10;45.80;;;;;;5046136;28;20049;-88
2023/08/01 10:55:07;;;;;;;0.80;0.63;;;21.30;46.10;;;;;;5064928;28;20526;-89
2023/08/01 10:57:39;;;;;;;1.13;0.60;;;21.40;44.00;;;;;;5067780;28;20049;-88
2023/08/01 11:00:12;;;;;;;0.82;0.50;;;21.50;39.40;;;;;;5067325;28;20064;-89
2023/08/01 11:02:39;;;;;;;0.93;0.70;;;21.70;40.30;;;;;;5047310;28;20110;-87
2023/08/01 11:05:06;;;;;;;0.63;0.50;;;21.90;42.90;;;;;;5044466;28;20561;-88
2023/08/01 11:07:34;;;;;;;0.45;0.40;;;22.30;42.60;;;;;;5028170;28;20045;-88
2023/08/01 11:10:08;;;;;;;1.13;0.52;;;22.50;41.30;;;;;;5035271;28;20155;-88
2023/08/01 11:12:39;;;;;;;1.00;0.63;;;22.70;39.90;;;;;;5065684;28;20174;-88
2023/08/01 11:15:08;;;;;;;1.23;0.50;;;22.90;36.40;;;;;;5048419;28;20049;-87
2023/08/01 11:17:42;;;;;;;0.85;0.50;;;22.80;32.00;;;;;;5066103;28;20048;-88
2023/08/01 11:20:11;;;;;;;1.13;0.50;;;23.10;31.30;;;;;;5061107;28;20071;-89
2023/08/01 11:22:38;;;;;;;1.08;0.65;;;23.10;27.40;;;;;;5034420;28;20532;-88
2023/08/01 11:25:05;;;;;;;0.68;0.47;;;23.00;24.30;;;;;;5047314;28;20040;-86
2023/08/01 11:27:32;;;;;;;1.58;0.60;;;22.80;22.00;;;;;;5048528;28;20147;-88
2023/08/01 11:29:59;;;;;;;0.30;0.30;;;23.10;23.70;;;;;;5046441;28;20045;-89
2023/08/01 11:32:36;;;;;;;0.40;0.40;;;23.40;24.10;;;;;;5047486;28;20051;-87
2023/08/01 11:35:03;;;;;;;0.70;0.55;;;23.60;21.00;;;;;;5063663;28;20052;-88
2023/08/01 11:37:30;;;;;;;0.70;0.57;;;23.30;16.20;;;;;;5049548;28;20122;-88
2023/08/01 11:39:57;;;;;;;0.50;0.32;;;23.50;15.40;;;;;;5066169;28;20097;-88
2023/08/01 11:42:24;;;;;;;0.88;0.50;;;23.70;13.10;;;;;;5033500;28;20471;-88
2023/08/01 11:44:51;;;;;;;0.60;0.60;;;23.70;11.90;;;;;;5067093;28;20052;-87
2023/08/01 11:47:18;;;;;;;1.08;0.80;;;24.10;12.30;;;;;;5065583;28;20052;-88
2023/08/01 11:49:49;;;;;;;0.43;0.40;;;23.80;9.00;;;;;;5049052;28;20518;-87
2023/08/01 11:52:26;;;;;;;2.42;0.70;;;23.60;11.00;;;;;;5032494;28;20052;-88
2023/08/01 11:54:54;;;;;;;1.55;0.68;;;23.20;2.20;;;;;;5049615;28;20056;-88
2023/08/01 11:57:24;;;;;;;0.95;0.55;;;23.10;3.20;;;;;;5029377;28;20695;-88
2023/08/01 11:59:53;;;;;;;1.05;0.50;;;23.20;3.40;;;;;;5046125;28;20434;-88
2023/08/01 12:02:30;;;;;;;1.42;0.60;;;23.10;1.00;;;;;;5045060;28;20201;-86
2023/08/01 12:04:57;;;;;;;0.80;0.63;;;23.50;1.00;;;;;;5045392;28;20052;-85
2023/08/01 12:07:29;;;;;;;1.05;0.65;;;24.20;1.40;;;;;;5045518;28;20709;-88
2023/08/01 12:10:00;;;;;;;0.50;0.40;;;24.80;3.30;;;;;;5045352;28;20167;-86
2023/08/01 12:12:27;;;;;;;1.05;0.50;;;24.60;2.10;;;;;;5047932;28;20175;-80
2023/08/01 12:14:54;;;;;;;1.80;0.90;;;24.40;1.00;;;;;;5026103;28;20045;-81
2023/08/01 12:17:22;;;;;;;0.45;0.40;;;24.60;1.00;;;;;;5042100;28;20738;-79
2023/08/01 12:19:49;;;;;;;1.23;0.40;;;24.90;1.00;;;;;;5041715;28;20554;-78
2023/08/01 12:22:16;;;;;;;1.83;0.60;;;25.20;1.00;;;;;;5040499;28;20522;-79
2023/08/01 12:24:42;;;;;;;0.77;0.55;;;24.80;1.00;;;;;;5039726;28;20049;-79
2023/08/01 12:27:09;;;;;;;1.00;0.47;;;24.40;1.00;;;;;;5036451;28;20049;-78
2023/08/01 12:29:36;;;;;;;0.73;0.50;;;24.60;1.00;;;;;;5053298;28;20041;-79
2023/08/01 12:32:03;;;;;;;1.33;0.50;;;25.40;1.00;;;;;;5050685;28;20067;-78
2023/08/01 12:34:30;;;;;;;0.52;0.35;;;25.60;1.00;;;;;;5057693;28;20052;-79
2023/08/01 12:36:57;;;;;;;0.73;0.40;;;25.20;1.00;;;;;;5046789;28;20547;-79
2023/08/01 12:39:25;;;;;;;0.68;0.40;;;24.80;1.00;;;;;;5044389;28;20052;-78
2023/08/01 12:41:53;;;;;;;0.98;0.65;;;24.40;1.00;;;;;;5046243;28;20049;-78
2023/08/01 12:44:20;;;;;;;1.50;0.65;;;24.00;1.00;;;;;;5044651;28;20617;-78
2023/08/01 12:46:47;;;;;;;1.40;0.70;;;23.70;1.00;;;;;;5041794;28;20064;-78
2023/08/01 12:49:14;;;;;;;0.60;0.60;;;23.60;1.00;;;;;;5044982;28;20044;-79